Hauptseite
METAR-TAF:

METAR-TAF

Flughäfen :

RNAS Yeovilton

Yeovilton, England

Breite: 51-00N, Länge: 002-38W, Höhe: 23 m

Beobachtung

Neuester Wetterbericht von vor 31 Minuten, um 03:50 UTC
Wind 1 kt aus Süd/Südwest
Temperatur 4°C
Luftfeuchtigkeit 100%
Luftdruck 1006 hPa
Sichtweite 10 km oder mehr

METAR: EGDY 070350Z AUTO 20001KT 9999 NCD 04/04 Q1006

Zeit: 05:21 (04:21 UTC)


TAF: fehlend

Wetterbeobachtungen und Prognosen von mehr als 4000 Flughäfen (METAR und TAF Bericht).

Die verfügbaren Stationen werden durch gelbe und rote Markierungen auf der Karte dargestellt.

Führen Sie die Maus auf sie, um den Namen der Station zu sehen.

Darauf klicken, um die Beobachtung von Wetterbeobachtungen und Prognosen zu sehen.

Um die Karte zu ändern : klicken Sie auf den grünen Tasten mit einem schwarzen Kreuz Zum Vergrößern, auf den grünen Button mit einem Gedankenstrich zu verkleinern, oder auf die grünen Pfeile für benachbarte Karten.


METAR-TAF: